Time;durP1;ratioP1;P1;durP2;ratioP2;P2;SDS_P1;SDS_P2;PMS_P1;PMS_P2;Temp;Humidity;BMP_temperature;BMP_pressure;BME280_temperature;BME280_humidity;BME280_pressure;Samples;Min_cycle;Max_cycle;Signal;HPM_P1;HPM_P2
2022/06/18 00:00:18;;;;;;;2.42;1.90;;;;;;;15.85;75.43;98981.50;2597194;28;20528;-75
2022/06/18 00:01:52;;;;;;;3.20;2.13;;;;;;;15.79;76.74;98978.19;2597267;28;20053;-75
2022/06/18 00:03:09;;;;;;;3.05;1.83;;;;;;;15.77;77.05;98979.19;2597181;28;20049;-75
2022/06/18 00:04:25;;;;;;;3.60;1.92;;;;;;;15.75;76.82;98978.38;2596962;28;20115;-75
2022/06/18 00:05:42;;;;;;;3.17;2.10;;;;;;;15.73;77.03;98977.59;2596809;28;20050;-75
2022/06/18 00:07:05;;;;;;;3.00;2.03;;;;;;;15.71;77.35;98971.53;2596889;28;20056;-76
2022/06/18 00:08:28;;;;;;;3.90;2.28;;;;;;;15.69;77.72;98971.56;2597115;28;20049;-75
2022/06/18 00:09:52;;;;;;;2.72;2.20;;;;;;;15.70;77.99;98977.72;2596840;28;20129;-75
2022/06/18 00:14:18;;;;;;;2.58;2.08;;;;;;;15.59;79.86;98983.44;2596740;28;20479;-75
2022/06/18 00:15:37;;;;;;;3.90;2.10;;;;;;;15.59;79.59;98979.00;2596788;28;20104;-74
2022/06/18 00:16:53;;;;;;;3.13;2.10;;;;;;;15.58;79.70;98974.66;2596871;28;20055;-77
2022/06/18 00:18:13;;;;;;;2.05;1.83;;;;;;;15.56;79.87;98973.84;2597000;28;20416;-75
2022/06/18 00:19:28;;;;;;;2.20;2.00;;;;;;;15.56;80.24;98975.63;2596917;28;20081;-75
2022/06/18 00:20:44;;;;;;;2.42;1.85;;;;;;;15.53;80.69;98969.56;2597198;28;20575;-75
2022/06/18 00:22:00;;;;;;;2.92;2.13;;;;;;;15.53;80.74;98966.06;2596808;28;20052;-75
2022/06/18 00:23:16;;;;;;;2.25;2.00;;;;;;;15.51;81.20;98970.56;2596890;28;20057;-78
2022/06/18 00:24:32;;;;;;;4.47;1.90;;;;;;;15.50;80.47;98964.41;2596999;28;20053;-74
2022/06/18 00:25:50;;;;;;;1.80;1.70;;;;;;;15.49;81.31;98964.44;2596955;28;20548;-74
2022/06/18 00:27:12;;;;;;;3.58;1.83;;;;;;;15.46;81.32;98968.09;2596918;28;20061;-74
2022/06/18 00:28:30;;;;;;;2.33;1.77;;;;;;;15.44;81.62;98969.06;2596911;28;20513;-75
2022/06/18 00:29:47;;;;;;;2.50;1.90;;;;;;;15.42;81.23;98966.47;2596718;28;20973;-75
2022/06/18 00:31:03;;;;;;;2.22;2.00;;;;;;;15.41;81.12;98966.56;2596926;28;20053;-74
2022/06/18 00:32:18;;;;;;;3.92;2.00;;;;;;;15.42;80.96;98973.53;2596719;28;20060;-75
2022/06/18 00:33:36;;;;;;;6.78;2.10;;;;;;;15.39;81.14;98966.59;2596846;28;20140;-74
2022/06/18 00:34:54;;;;;;;2.72;2.08;;;;;;;15.36;81.27;98970.22;2596968;28;20156;-74
2022/06/18 00:36:17;;;;;;;1.83;1.70;;;;;;;15.33;81.41;98964.22;2596825;28;20057;-75
2022/06/18 00:37:32;;;;;;;3.28;1.80;;;;;;;15.31;81.58;98964.25;2596664;28;20079;-74
2022/06/18 00:38:48;;;;;;;2.65;2.00;;;;;;;15.28;81.61;98966.16;2596890;28;20555;-75
2022/06/18 00:40:36;;;;;;;2.60;2.10;;;;;;;15.25;81.17;98964.53;2595553;28;20073;-75
2022/06/18 00:41:51;;;;;;;3.03;1.90;;;;;;;15.22;81.41;98964.63;2596725;28;20087;-76
2022/06/18 00:43:15;;;;;;;2.22;1.90;;;;;;;15.19;81.79;98962.97;2596976;28;20041;-75
2022/06/18 00:44:34;;;;;;;2.28;2.08;;;;;;;15.14;81.91;98957.00;2594945;28;20049;-75
2022/06/18 00:45:54;;;;;;;3.58;2.10;;;;;;;15.11;81.96;98962.41;2596710;28;20176;-75
2022/06/18 00:47:20;;;;;;;4.03;2.10;;;;;;;15.14;81.70;98961.44;2596787;28;20060;-76
2022/06/18 00:48:47;;;;;;;2.95;2.05;;;;;;;15.11;81.49;98965.03;2596457;28;20081;-75
2022/06/18 00:50:14;;;;;;;3.22;2.45;;;;;;;15.06;82.22;98967.00;2596247;28;20050;-75
2022/06/18 00:51:38;;;;;;;2.65;2.15;;;;;;;14.97;82.46;98965.56;2596725;28;20053;-75
2022/06/18 00:53:02;;;;;;;2.50;1.90;;;;;;;14.95;83.04;98962.13;2596588;28;20050;-75
2022/06/18 00:54:22;;;;;;;3.35;2.10;;;;;;;14.90;83.36;98967.56;2596598;28;20056;-75
2022/06/18 00:55:52;;;;;;;5.55;2.03;;;;;;;14.88;84.10;98966.78;2596784;28;20136;-75
2022/06/18 00:57:11;;;;;;;2.13;1.92;;;;;;;14.86;84.44;98967.75;2596677;28;20057;-75
2022/06/18 00:58:35;;;;;;;3.05;2.13;;;;;;;14.85;84.13;98971.31;2596487;28;20530;-76
2022/06/18 00:59:56;;;;;;;2.35;2.00;;;;;;;14.83;84.35;98972.22;2596839;28;20064;-75
2022/06/18 01:01:21;;;;;;;3.20;1.90;;;;;;;14.80;84.76;98974.09;2596410;28;20554;-75
2022/06/18 01:02:41;;;;;;;2.33;2.10;;;;;;;14.74;85.14;98969.91;2596389;28;20045;-76
2022/06/18 01:03:56;;;;;;;2.92;1.85;;;;;;;14.70;85.31;98970.91;2596581;28;20053;-76
2022/06/18 01:05:13;;;;;;;2.22;1.90;;;;;;;14.67;85.06;98961.34;2596335;28;20057;-75
2022/06/18 01:06:32;;;;;;;2.83;1.98;;;;;;;14.69;85.03;98969.19;2596558;28;20063;-75
2022/06/18 01:07:56;;;;;;;2.17;1.95;;;;;;;14.68;85.04;98965.69;2596591;28;20065;-76
2022/06/18 01:09:15;;;;;;;5.13;2.17;;;;;;;14.68;85.09;98970.97;2596463;28;20053;-76
2022/06/18 01:10:35;;;;;;;5.55;2.05;;;;;;;14.66;85.06;98970.16;2596003;28;20500;-76
2022/06/18 01:11:50;;;;;;;3.28;2.30;;;;;;;14.65;85.36;98963.16;2596391;28;20084;-75
2022/06/18 01:13:10;;;;;;;4.38;2.55;;;;;;;14.65;85.41;98980.75;2596695;28;20053;-75
2022/06/18 01:14:27;;;;;;;2.45;2.03;;;;;;;14.61;85.61;98973.88;2596604;28;20053;-75
2022/06/18 01:15:45;;;;;;;3.55;2.20;;;;;;;14.54;86.73;98963.56;2596569;28;20049;-75
2022/06/18 01:17:03;;;;;;;2.25;2.05;;;;;;;14.51;86.50;98966.28;2596611;28;20053;-77
2022/06/18 01:18:18;;;;;;;3.75;2.05;;;;;;;14.49;86.94;98964.66;2596363;28;20053;-75
2022/06/18 01:19:39;;;;;;;3.90;2.08;;;;;;;14.46;87.35;98959.47;2596441;28;20516;-76
2022/06/18 01:21:07;;;;;;;3.25;2.20;;;;;;;14.44;87.48;98956.91;2596243;28;20484;-75
2022/06/18 01:22:42;;;;;;;3.17;2.17;;;;;;;14.40;87.34;98953.50;2596353;28;20440;-76
2022/06/18 01:24:23;;;;;;;3.10;2.05;;;;;;;14.39;87.20;98949.16;2596481;28;20056;-75
2022/06/18 01:25:39;;;;;;;4.55;2.35;;;;;;;14.37;87.39;98948.34;2596397;28;20892;-76
2022/06/18 01:26:56;;;;;;;2.35;2.08;;;;;;;14.36;87.10;98953.66;2596272;28;20053;-75
2022/06/18 01:28:16;;;;;;;2.65;2.20;;;;;;;14.34;87.39;98950.22;2596272;28;20507;-75
2022/06/18 01:29:32;;;;;;;2.58;2.20;;;;;;;14.26;87.11;98954.00;2596672;28;20056;-75
2022/06/18 01:30:48;;;;;;;3.33;2.17;;;;;;;14.18;87.10;98945.50;2596169;28;20053;-75
2022/06/18 01:32:06;;;;;;;3.47;2.10;;;;;;;14.09;87.27;98946.69;2595975;28;20126;-75
2022/06/18 01:33:22;;;;;;;4.88;2.25;;;;;;;14.04;87.65;98953.00;2596437;28;21076;-75
2022/06/18 01:34:38;;;;;;;2.58;2.38;;;;;;;13.98;87.62;98949.69;2596276;28;20103;-76
2022/06/18 01:35:55;;;;;;;3.10;2.10;;;;;;;13.94;87.82;98950.69;2596465;28;20416;-75
2022/06/18 01:37:11;;;;;;;2.63;2.17;;;;;;;13.90;88.31;98954.34;2596280;28;20049;-78
2022/06/18 01:38:27;;;;;;;2.47;2.22;;;;;;;13.89;88.36;98955.25;2596593;28;20107;-75
2022/06/18 01:39:46;;;;;;;2.25;2.00;;;;;;;13.90;88.57;98950.84;2596638;28;20049;-75
2022/06/18 01:42:54;;;;;;;4.20;2.25;;;;;;;13.91;89.20;98948.16;2596233;28;20080;-76
2022/06/18 01:44:18;;;;;;;2.47;2.13;;;;;;;13.93;89.21;98942.84;2596243;28;20906;-76
2022/06/18 01:45:37;;;;;;;2.92;2.47;;;;;;;13.93;89.00;98943.69;2596058;28;20050;-76
2022/06/18 01:46:58;;;;;;;3.03;2.15;;;;;;;13.93;89.09;98943.69;2596188;28;20118;-76
2022/06/18 01:48:22;;;;;;;5.00;2.35;;;;;;;13.93;88.93;98943.69;2596243;28;20095;-75
2022/06/18 01:49:45;;;;;;;2.95;2.40;;;;;;;13.95;89.12;98938.41;2596064;28;20047;-75
2022/06/18 01:51:03;;;;;;;;;;;;;;;13.95;89.42;98939.25;2596779;28;20846;-76
2022/06/18 01:52:23;;;;;;;4.15;2.35;;;;;;;13.94;89.17;98937.53;2596005;28;19931;-75
2022/06/18 01:53:46;;;;;;;4.03;2.78;;;;;;;13.95;89.75;98936.59;2596216;28;20118;-76
2022/06/18 01:55:08;;;;;;;2.67;2.45;;;;;;;13.96;89.83;98932.22;2596148;28;20439;-75
2022/06/18 01:56:29;;;;;;;3.35;2.42;;;;;;;13.97;90.02;98933.94;2596109;28;20059;-76
2022/06/18 01:57:50;;;;;;;3.45;2.55;;;;;;;13.97;89.88;98937.44;2596576;28;20080;-75
2022/06/18 01:59:16;;;;;;;3.67;2.70;;;;;;;13.95;89.97;98936.59;2596349;28;20080;-74
2022/06/18 02:00:32;;;;;;;3.28;2.30;;;;;;;13.93;90.00;98929.69;2596224;28;20045;-74
2022/06/18 02:01:49;;;;;;;3.03;2.40;;;;;;;13.92;89.91;98933.25;2595844;28;20049;-75
2022/06/18 02:03:06;;;;;;;3.72;2.55;;;;;;;13.90;90.07;98932.41;2596089;28;20386;-74
2022/06/18 02:04:24;;;;;;;2.85;2.50;;;;;;;13.89;90.03;98926.31;2595932;28;20091;-74
2022/06/18 02:05:39;;;;;;;3.78;2.60;;;;;;;13.90;89.85;98930.66;2595952;28;20384;-76
2022/06/18 02:06:55;;;;;;;3.88;2.10;;;;;;;13.89;89.69;98928.94;2595715;28;20045;-74
2022/06/18 02:08:15;;;;;;;4.00;2.63;;;;;;;13.88;89.94;98924.59;2595767;28;20041;-75
2022/06/18 02:09:45;;;;;;;3.42;2.40;;;;;;;13.84;89.69;98925.59;2596083;28;20411;-75
2022/06/18 02:11:05;;;;;;;3.55;2.33;;;;;;;13.81;90.28;98915.16;2595541;28;20095;-74
2022/06/18 02:12:25;;;;;;;2.42;2.22;;;;;;;13.78;90.74;98915.28;2596073;28;20069;-75
2022/06/18 02:13:46;;;;;;;3.88;2.45;;;;;;;13.74;90.95;98917.13;2595970;28;20088;-74
2022/06/18 02:15:34;;;;;;;4.95;2.38;;;;;;;13.69;90.99;98913.81;2595655;28;20049;-75
2022/06/18 02:16:53;;;;;;;3.28;2.50;;;;;;;13.65;91.10;98915.69;2595036;28;20049;-75
2022/06/18 02:18:12;;;;;;;3.08;2.58;;;;;;;13.63;91.26;98920.13;2595701;28;20274;-79
2022/06/18 02:19:28;;;;;;;2.58;2.38;;;;;;;13.61;91.33;98918.44;2595760;28;20057;-75
2022/06/18 02:20:48;;;;;;;4.05;2.63;;;;;;;13.54;91.73;98920.41;2595953;28;20054;-75
2022/06/18 02:22:06;;;;;;;4.00;2.80;;;;;;;13.51;91.72;98912.63;2595939;28;20049;-75
2022/06/18 02:23:23;;;;;;;6.97;2.55;;;;;;;13.50;91.87;98910.91;2595964;28;20091;-75
2022/06/18 02:24:40;;;;;;;4.25;2.60;;;;;;;13.49;91.62;98909.19;2595538;28;20057;-75
2022/06/18 02:25:56;;;;;;;5.10;2.30;;;;;;;13.48;91.61;98910.13;2595998;28;20496;-75
2022/06/18 02:27:14;;;;;;;4.15;2.40;;;;;;;13.47;91.32;98916.28;2596312;28;20041;-75
2022/06/18 02:28:36;;;;;;;3.53;2.50;;;;;;;13.45;91.72;98918.09;2595463;28;20061;-74
2022/06/18 02:29:53;;;;;;;3.65;2.50;;;;;;;13.40;91.34;98916.44;2595845;28;20057;-76
2022/06/18 02:31:18;;;;;;;3.28;2.50;;;;;;;13.38;91.09;98912.16;2595538;28;20500;-75
2022/06/18 02:33:03;;;;;;;3.58;2.50;;;;;;;13.36;91.53;98906.94;2595705;28;20050;-75
2022/06/18 02:34:22;;;;;;;2.97;2.40;;;;;;;13.35;91.71;98909.63;2595074;28;20049;-75
2022/06/18 02:35:38;;;;;;;3.20;2.78;;;;;;;13.32;91.53;98909.69;2595871;28;20081;-75
2022/06/18 02:36:54;;;;;;;3.20;2.42;;;;;;;13.32;91.44;98910.56;2595704;28;20049;-78
2022/06/18 02:38:20;;;;;;;3.35;2.60;;;;;;;13.31;91.56;98914.13;2595674;28;20056;-75
2022/06/18 02:39:53;;;;;;;2.97;2.47;;;;;;;13.30;92.13;98914.16;2595879;28;20056;-75
2022/06/18 02:41:10;;;;;;;3.47;2.40;;;;;;;13.30;92.32;98911.53;2595823;28;20049;-75
2022/06/18 02:42:33;;;;;;;3.25;2.38;;;;;;;13.32;92.11;98907.94;2595396;28;20192;-75
2022/06/18 02:43:50;;;;;;;5.07;2.55;;;;;;;13.34;91.93;98911.38;2596044;28;20081;-75
2022/06/18 02:45:06;;;;;;;3.05;2.47;;;;;;;13.38;91.14;98917.41;2595832;28;20052;-75
2022/06/18 02:46:22;;;;;;;4.95;2.65;;;;;;;13.34;91.71;98907.88;2595843;28;20083;-75
2022/06/18 02:47:38;;;;;;;3.95;2.60;;;;;;;13.32;92.25;98910.56;2596048;28;20049;-75
2022/06/18 02:48:53;;;;;;;3.83;2.88;;;;;;;13.31;93.04;98911.50;2595707;28;20049;-75
2022/06/18 02:50:11;;;;;;;3.67;2.80;;;;;;;13.31;93.33;98918.50;2595756;28;20060;-75
2022/06/18 02:51:30;;;;;;;3.58;2.78;;;;;;;13.27;93.94;98915.13;2594625;28;20558;-75
2022/06/18 02:52:53;;;;;;;5.63;2.75;;;;;;;13.30;94.13;98911.53;2594950;28;20045;-75
2022/06/18 02:54:10;;;;;;;3.47;2.80;;;;;;;13.34;94.02;98913.13;2595530;28;20099;-74
2022/06/18 02:55:25;;;;;;;3.33;2.72;;;;;;;13.36;94.36;98919.22;2595652;28;20049;-75
2022/06/18 02:56:43;;;;;;;6.25;3.10;;;;;;;13.37;94.50;98916.53;2595597;28;20136;-77
2022/06/18 02:58:05;;;;;;;3.78;2.55;;;;;;;13.38;94.01;98913.00;2595392;28;20084;-75
2022/06/18 02:59:20;;;;;;;5.25;2.67;;;;;;;13.40;94.16;98911.16;2595860;28;20144;-75
2022/06/18 03:00:38;;;;;;;4.65;3.00;;;;;;;13.49;94.39;98914.47;2594972;28;20050;-74
2022/06/18 03:01:53;;;;;;;5.15;2.80;;;;;;;13.54;94.33;98913.41;2595373;28;20529;-74
2022/06/18 03:03:14;;;;;;;4.55;2.80;;;;;;;13.60;94.39;98916.72;2595511;28;20053;-78
2022/06/18 03:04:30;;;;;;;7.57;3.00;;;;;;;13.66;93.81;98908.66;2597696;28;20046;-75
2022/06/18 03:05:46;;;;;;;3.40;2.97;;;;;;;13.70;93.51;98916.41;2597613;28;20052;-75
2022/06/18 03:07:02;;;;;;;3.85;2.75;;;;;;;13.77;93.43;98911.78;2597643;28;20059;-75
2022/06/18 03:08:17;;;;;;;8.50;2.80;;;;;;;13.81;93.12;98913.41;2598102;28;20502;-75
2022/06/18 03:12:06;;;;;;;4.03;2.85;;;;;;;13.83;92.88;98918.63;2597766;28;20076;-75
2022/06/18 03:12:43;;;;;;;5.00;2.67;;;;;;;13.79;93.04;98917.00;2597572;28;20053;-75
2022/06/18 03:13:59;;;;;;;2.97;2.67;;;;;;;13.76;93.25;98917.97;2597480;28;20071;-76
2022/06/18 03:15:15;;;;;;;3.47;2.83;;;;;;;13.73;93.54;98925.94;2597697;28;20053;-75
2022/06/18 03:16:30;;;;;;;3.80;2.75;;;;;;;13.72;93.37;98918.13;2597618;28;20154;-75
2022/06/18 03:17:46;;;;;;;2.78;2.55;;;;;;;13.71;93.57;98925.13;2597618;28;20049;-75
2022/06/18 03:19:04;;;;;;;6.45;2.90;;;;;;;13.69;93.98;98924.34;2597636;28;20045;-75
2022/06/18 03:20:25;;;;;;;5.82;2.60;;;;;;;13.67;93.60;98921.75;2597827;28;20103;-75
2022/06/18 03:21:55;;;;;;;4.88;2.80;;;;;;;13.67;93.21;98921.75;2597079;28;20053;-75
2022/06/18 03:23:16;;;;;;;3.22;2.58;;;;;;;13.68;93.18;98919.97;2596530;28;20041;-75
2022/06/18 03:24:31;;;;;;;4.80;2.60;;;;;;;13.70;93.06;98924.28;2597405;28;20049;-75
2022/06/18 03:25:47;;;;;;;4.88;2.63;;;;;;;13.72;92.94;98918.97;2597741;28;20056;-75
2022/06/18 03:27:03;;;;;;;4.32;2.80;;;;;;;13.73;92.81;98925.09;2596813;28;20072;-75
2022/06/18 03:28:20;;;;;;;4.80;2.60;;;;;;;13.73;92.89;98918.06;2596278;28;20053;-75
2022/06/18 03:29:36;;;;;;;3.20;2.88;;;;;;;13.75;92.87;98915.38;2596674;28;20143;-75
2022/06/18 03:30:52;;;;;;;2.70;2.50;;;;;;;13.74;93.05;98914.50;2597721;28;20476;-75
2022/06/18 03:32:07;;;;;;;2.78;2.58;;;;;;;13.75;92.52;98915.38;2597642;28;20140;-75
2022/06/18 03:33:23;;;;;;;6.45;3.38;;;;;;;13.77;92.64;98908.28;2597317;28;20087;-75
2022/06/18 03:34:39;;;;;;;4.18;3.00;;;;;;;13.77;92.25;98916.19;2597720;28;20479;-75
2022/06/18 03:35:55;;;;;;;3.25;2.80;;;;;;;13.76;92.47;98911.84;2597874;28;20049;-76
2022/06/18 03:37:10;;;;;;;4.65;2.90;;;;;;;13.75;92.38;98910.97;2597434;28;20088;-75
2022/06/18 03:38:26;;;;;;;6.30;2.63;;;;;;;13.74;92.63;98903.97;2597361;28;20128;-75
2022/06/18 03:39:41;;;;;;;4.05;3.03;;;;;;;13.74;92.85;98909.25;2597271;28;20083;-75
2022/06/18 03:40:57;;;;;;;3.28;2.95;;;;;;;13.75;92.44;98910.13;2597339;28;20053;-76
2022/06/18 03:42:13;;;;;;;6.32;3.20;;;;;;;13.79;92.76;98911.72;2596975;28;20138;-75
2022/06/18 03:43:28;;;;;;;5.45;2.80;;;;;;;13.82;92.98;98911.63;2597305;28;20089;-75
2022/06/18 03:44:44;;;;;;;6.25;3.20;;;;;;;13.84;92.79;98905.41;2597394;28;20056;-75
2022/06/18 03:46:07;;;;;;;4.50;2.92;;;;;;;13.88;92.99;98914.06;2597396;28;20976;-75
2022/06/18 03:47:23;;;;;;;3.60;2.75;;;;;;;13.93;93.14;98909.47;2597389;28;20717;-75
2022/06/18 03:48:44;;;;;;;5.28;3.35;;;;;;;13.99;93.05;98905.78;2597559;28;20131;-74
2022/06/18 03:50:00;;;;;;;3.95;2.70;;;;;;;14.00;92.96;98904.88;2597638;28;20053;-74
2022/06/18 03:51:16;;;;;;;3.33;2.92;;;;;;;14.06;92.16;98901.16;2596723;28;20045;-74
2022/06/18 03:52:32;;;;;;;3.75;3.30;;;;;;;14.03;92.22;98907.38;2597216;28;20425;-74
2022/06/18 03:53:48;;;;;;;5.68;2.88;;;;;;;13.98;92.28;98904.94;2597875;28;20045;-75
2022/06/18 03:55:04;;;;;;;3.33;2.92;;;;;;;13.97;92.63;98910.25;2597818;28;20075;-75
2022/06/18 03:56:22;;;;;;;4.45;3.20;;;;;;;13.96;92.38;98906.75;2597170;28;20068;-75
2022/06/18 03:57:37;;;;;;;5.35;2.85;;;;;;;13.92;92.89;98902.50;2597432;28;20061;-75
2022/06/18 03:58:54;;;;;;;5.57;3.00;;;;;;;13.91;92.71;98906.06;2597169;28;20064;-75
2022/06/18 04:00:16;;;;;;;3.25;2.80;;;;;;;13.92;93.22;98905.13;2597427;28;20504;-74
2022/06/18 04:01:33;;;;;;;4.88;3.00;;;;;;;14.00;93.02;98907.50;2597204;28;20073;-75
2022/06/18 04:02:49;;;;;;;5.40;3.00;;;;;;;14.00;93.52;98909.28;2596939;28;20160;-74
2022/06/18 04:04:05;;;;;;;5.25;3.22;;;;;;;14.01;93.34;98911.00;2597250;28;20053;-77
2022/06/18 04:05:20;;;;;;;4.43;3.05;;;;;;;13.98;93.51;98904.06;2597207;28;20080;-76
2022/06/18 04:06:38;;;;;;;4.95;3.10;;;;;;;13.98;93.31;98904.94;2597277;28;20515;-75
2022/06/18 04:07:54;;;;;;;4.85;3.13;;;;;;;14.00;93.39;98909.28;2596959;28;20045;-76
2022/06/18 04:09:11;;;;;;;4.90;2.88;;;;;;;13.97;93.75;98911.13;2596989;28;20579;-75
2022/06/18 04:10:27;;;;;;;4.15;3.00;;;;;;;13.99;93.82;98918.94;2597219;28;20053;-75
2022/06/18 04:11:42;;;;;;;4.82;2.80;;;;;;;14.12;93.59;98911.50;2596776;28;20053;-75
2022/06/18 04:12:58;;;;;;;4.03;3.08;;;;;;;14.16;92.81;98915.75;2596713;28;20598;-74
2022/06/18 04:14:14;;;;;;;3.25;2.72;;;;;;;14.20;92.73;98912.06;2597073;28;20045;-75
2022/06/18 04:15:30;;;;;;;2.92;2.65;;;;;;;14.25;92.16;98914.53;2597368;28;20056;-75
2022/06/18 04:16:45;;;;;;;3.80;2.80;;;;;;;14.26;92.00;98911.88;2597298;28;20080;-75
2022/06/18 04:18:02;;;;;;;3.20;2.90;;;;;;;14.29;92.07;98910.03;2597178;28;20068;-74
2022/06/18 04:19:17;;;;;;;3.53;2.80;;;;;;;14.29;92.15;98915.31;2597064;28;20473;-75
2022/06/18 04:20:36;;;;;;;4.35;3.00;;;;;;;14.31;92.05;98905.56;2595806;28;20049;-74
2022/06/18 04:21:51;;;;;;;4.78;3.20;;;;;;;14.30;91.84;98906.50;2596007;28;20060;-75
2022/06/18 04:23:09;;;;;;;3.28;2.72;;;;;;;14.27;92.11;98907.44;2596249;28;20545;-75
2022/06/18 04:24:25;;;;;;;4.60;2.88;;;;;;;14.27;92.03;98903.06;2596974;28;20057;-75
2022/06/18 04:25:42;;;;;;;4.30;3.05;;;;;;;14.30;92.15;98901.22;2596779;28;20073;-77
2022/06/18 04:26:58;;;;;;;3.75;2.90;;;;;;;14.34;91.97;98897.56;2597063;28;20129;-75
2022/06/18 04:28:16;;;;;;;4.70;3.13;;;;;;;14.38;91.50;98905.28;2596945;28;20049;-75
2022/06/18 04:29:33;;;;;;;3.00;2.70;;;;;;;14.42;90.72;98900.78;2597015;28;20084;-75
2022/06/18 04:30:48;;;;;;;3.53;3.22;;;;;;;14.39;90.64;98903.53;2596790;28;20503;-74
2022/06/18 04:32:06;;;;;;;4.97;3.00;;;;;;;14.38;90.55;98893.88;2596624;28;20099;-75
2022/06/18 04:33:21;;;;;;;3.50;2.70;;;;;;;14.37;90.70;98900.06;2596451;28;20045;-74
2022/06/18 04:34:37;;;;;;;4.30;3.22;;;;;;;14.38;90.51;98900.03;2596757;28;20164;-75
2022/06/18 04:35:55;;;;;;;3.55;2.90;;;;;;;14.41;90.42;98897.28;2597013;28;20581;-75
2022/06/18 04:37:10;;;;;;;3.33;3.03;;;;;;;14.45;89.76;98900.66;2596652;28;20065;-74
2022/06/18 04:38:27;;;;;;;4.13;3.10;;;;;;;14.51;89.65;98902.22;2597084;28;20042;-75
2022/06/18 04:39:42;;;;;;;4.80;3.00;;;;;;;14.52;89.25;98903.94;2596835;28;20393;-75
2022/06/18 04:40:58;;;;;;;3.83;3.15;;;;;;;14.57;88.58;98901.13;2597064;28;20045;-75
2022/06/18 04:42:13;;;;;;;4.20;3.15;;;;;;;14.60;89.07;98903.66;2596564;28;20061;-75
2022/06/18 04:43:29;;;;;;;6.28;3.10;;;;;;;14.63;89.17;98899.13;2596908;28;20057;-74
2022/06/18 04:44:44;;;;;;;3.40;3.10;;;;;;;14.61;88.80;98900.97;2596863;28;20149;-75
2022/06/18 04:46:00;;;;;;;4.70;3.30;;;;;;;14.71;88.64;98898.84;2596972;28;20377;-75
2022/06/18 04:47:16;;;;;;;6.00;3.08;;;;;;;14.73;88.09;98899.66;2596647;28;20131;-75
2022/06/18 04:48:31;;;;;;;4.70;2.80;;;;;;;14.75;88.09;98903.09;2596824;28;20522;-76
2022/06/18 04:49:47;;;;;;;4.55;2.90;;;;;;;14.78;88.43;98899.50;2597220;28;20857;-75
2022/06/18 04:51:03;;;;;;;4.07;2.47;;;;;;;14.78;88.60;98899.50;2596502;28;20256;-77
2022/06/18 04:52:18;;;;;;;4.22;3.00;;;;;;;14.85;88.29;98902.75;2596439;28;20476;-75
2022/06/18 04:53:34;;;;;;;3.35;2.90;;;;;;;14.97;87.70;98902.28;2596626;28;20821;-75
2022/06/18 04:54:52;;;;;;;3.97;3.00;;;;;;;15.00;87.58;98901.28;2596412;28;20057;-76
2022/06/18 04:56:08;;;;;;;3.60;3.05;;;;;;;15.04;87.90;98901.13;2596546;28;20049;-75
2022/06/18 04:57:24;;;;;;;3.28;2.85;;;;;;;15.05;88.01;98899.34;2596175;28;20044;-74
2022/06/18 04:58:39;;;;;;;4.25;3.30;;;;;;;15.07;87.74;98892.25;2596300;28;20045;-74
2022/06/18 04:59:55;;;;;;;4.82;2.78;;;;;;;15.09;88.05;98903.59;2596563;28;20052;-74
2022/06/18 05:01:15;;;;;;;6.10;2.85;;;;;;;15.13;87.79;98902.53;2594459;28;20566;-74
2022/06/18 05:02:30;;;;;;;3.22;2.92;;;;;;;15.18;88.15;98902.34;2595874;28;20661;-75
2022/06/18 05:03:46;;;;;;;5.80;3.10;;;;;;;15.26;87.27;98900.28;2595761;28;20045;-74
2022/06/18 05:05:04;;;;;;;3.35;2.80;;;;;;;15.29;87.28;98897.53;2596237;28;20497;-76
2022/06/18 05:06:20;;;;;;;8.18;3.15;;;;;;;15.38;86.41;98901.56;2595327;28;20049;-74
2022/06/18 05:07:35;;;;;;;7.72;2.95;;;;;;;15.41;86.53;98908.50;2595986;28;20505;-74
2022/06/18 05:08:51;;;;;;;5.40;3.20;;;;;;;15.46;86.21;98901.25;2596418;28;20045;-74
2022/06/18 05:10:07;;;;;;;4.63;2.90;;;;;;;15.48;86.06;98902.91;2594964;28;20053;-77
2022/06/18 05:11:23;;;;;;;3.03;2.72;;;;;;;15.49;85.75;98901.13;2595646;28;20156;-74
2022/06/18 05:12:39;;;;;;;4.07;2.80;;;;;;;15.58;85.41;98902.56;2596637;28;20075;-74
2022/06/18 05:13:54;;;;;;;3.40;3.05;;;;;;;15.67;85.69;98900.38;2596175;28;20045;-75
2022/06/18 05:15:12;;;;;;;4.25;2.70;;;;;;;15.66;84.30;98890.75;2596690;28;20573;-75
2022/06/18 05:16:27;;;;;;;3.85;3.03;;;;;;;15.70;84.69;98893.25;2596721;28;20049;-74
2022/06/18 05:17:44;;;;;;;3.15;2.78;;;;;;;15.73;85.30;98895.75;2596461;28;20326;-74
2022/06/18 05:19:00;;;;;;;3.00;2.70;;;;;;;15.81;84.71;98893.66;2596703;28;20415;-74
2022/06/18 05:20:20;;;;;;;3.55;2.72;;;;;;;15.84;84.36;98890.00;2596273;28;20048;-74
2022/06/18 05:21:35;;;;;;;3.30;2.80;;;;;;;15.92;85.00;98899.38;2595997;28;20053;-75
2022/06/18 05:22:51;;;;;;;4.13;2.50;;;;;;;16.05;83.72;98897.06;2594718;28;20041;-75
2022/06/18 05:24:07;;;;;;;3.28;2.85;;;;;;;16.06;83.13;98888.22;2595691;28;20049;-75
2022/06/18 05:25:23;;;;;;;3.45;2.78;;;;;;;16.08;82.69;98893.44;2595521;28;20056;-75
2022/06/18 05:26:39;;;;;;;2.80;2.50;;;;;;;16.09;83.03;98895.16;2595566;28;20416;-75
2022/06/18 05:27:54;;;;;;;4.15;2.60;;;;;;;16.12;82.34;98894.13;2595476;28;20364;-75
2022/06/18 05:29:10;;;;;;;3.80;2.70;;;;;;;16.13;82.63;98890.56;2594994;28;20049;-76
2022/06/18 05:30:27;;;;;;;5.03;2.70;;;;;;;16.18;82.61;98884.16;2590231;28;20525;-74
2022/06/18 05:31:44;;;;;;;5.45;2.80;;;;;;;16.29;81.13;98889.00;2594285;28;20622;-75
2022/06/18 05:32:59;;;;;;;3.75;2.50;;;;;;;16.35;80.71;98885.22;2595591;28;20450;-75
2022/06/18 05:34:15;;;;;;;3.80;2.47;;;;;;;16.43;81.30;98888.38;2595375;28;20053;-75
2022/06/18 05:35:35;;;;;;;3.03;2.65;;;;;;;16.43;80.82;98891.00;2590757;28;20520;-74
2022/06/18 05:36:50;;;;;;;3.70;2.60;;;;;;;16.48;80.33;98889.03;2594666;28;20045;-74
2022/06/18 05:38:06;;;;;;;3.40;2.47;;;;;;;16.55;80.17;98894.03;2595861;28;20068;-74
2022/06/18 05:39:22;;;;;;;7.47;2.80;;;;;;;16.60;80.18;98892.03;2596456;28;20076;-74
2022/06/18 05:40:38;;;;;;;5.20;2.70;;;;;;;16.65;80.36;98895.34;2596268;28;20079;-74
2022/06/18 05:41:53;;;;;;;3.38;2.50;;;;;;;16.71;79.90;98884.47;2595783;28;20053;-75
2022/06/18 05:43:08;;;;;;;4.05;2.60;;;;;;;16.74;79.30;98886.97;2596374;28;20531;-75
2022/06/18 05:44:24;;;;;;;4.43;2.58;;;;;;;16.79;79.62;98892.91;2596093;28;20045;-76
2022/06/18 05:45:41;;;;;;;2.58;2.38;;;;;;;16.87;78.94;98889.91;2596492;28;20087;-75
2022/06/18 05:46:57;;;;;;;2.97;2.30;;;;;;;16.95;78.54;98886.91;2596255;28;20430;-75
2022/06/18 05:48:13;;;;;;;3.30;2.63;;;;;;;17.01;78.62;98885.78;2595785;28;20049;-75
2022/06/18 05:49:28;;;;;;;3.47;2.70;;;;;;;17.08;78.54;98892.50;2596055;28;20049;-77
2022/06/18 05:50:44;;;;;;;4.43;2.80;;;;;;;17.13;78.56;98885.22;2595300;28;20076;-76
2022/06/18 05:51:59;;;;;;;4.53;2.80;;;;;;;17.18;78.72;98885.84;2596104;28;20053;-75
2022/06/18 05:53:15;;;;;;;4.80;2.60;;;;;;;17.23;78.35;98886.47;2596108;28;20049;-75
2022/06/18 05:54:30;;;;;;;3.47;2.45;;;;;;;17.30;78.12;98884.38;2594738;28;20081;-75
2022/06/18 05:55:46;;;;;;;3.03;2.30;;;;;;;17.39;77.68;98876.94;2595342;28;20136;-74
2022/06/18 05:57:02;;;;;;;2.63;2.40;;;;;;;17.48;76.37;98884.41;2595981;28;20406;-74
2022/06/18 05:58:17;;;;;;;7.38;2.60;;;;;;;17.57;75.98;98876.00;2595988;28;20054;-75
2022/06/18 05:59:33;;;;;;;4.07;2.70;;;;;;;17.64;75.06;98880.06;2595929;28;20064;-75
2022/06/18 06:00:49;;;;;;;2.65;2.30;;;;;;;17.78;74.69;98878.53;2595226;28;20061;-74
2022/06/18 06:02:06;;;;;;;3.58;2.53;;;;;;;17.83;74.37;98887.09;2594012;28;20094;-74
2022/06/18 06:03:22;;;;;;;2.85;2.60;;;;;;;17.87;73.32;98883.34;2595083;28;20049;-75
2022/06/18 06:04:39;;;;;;;3.22;2.22;;;;;;;17.88;72.82;98876.25;2595472;28;20557;-75
2022/06/18 06:05:55;;;;;;;3.58;2.30;;;;;;;17.98;72.53;98884.59;2594915;28;20045;-75
2022/06/18 06:07:15;;;;;;;3.47;2.30;;;;;;;18.02;72.58;98883.47;2595877;28;20140;-75
2022/06/18 06:08:31;;;;;;;2.95;2.53;;;;;;;18.07;72.55;98885.00;2595888;28;20140;-76
2022/06/18 06:11:32;;;;;;;2.28;2.08;;;;;;;18.21;71.07;98881.63;2596209;28;20041;-75
2022/06/18 06:12:47;;;;;;;2.72;2.28;;;;;;;18.32;71.75;98880.22;2595699;28;20099;-75
2022/06/18 06:14:03;;;;;;;2.65;2.40;;;;;;;18.46;71.54;98885.63;2595714;28;20053;-76
2022/06/18 06:15:19;;;;;;;3.00;2.45;;;;;;;18.57;70.58;98878.88;2595782;28;20049;-75
2022/06/18 06:16:34;;;;;;;9.82;2.50;;;;;;;18.62;70.29;98872.38;2595846;28;20159;-76